Hlavní strana
METAR-TAF:

METAR-TAF

Letiště :

Fort McMurray, Alberta, Kanada

zeměpisná šířka: 56-39N, zeměpisná délka: 111-13W, výška: 369 m

Aktuální stav počasí

Zpráva byla vytvořena před 23 minutami, v 09:00 UTC
Severozápadní vítr 9 kt
Teplota -23°C
Vlhkost vzduchu 76%
Tlak 1021 hPa
Viditelnost: 14.5 km
Skoro jasno ve výšce 14000 ft

METAR: CYMM 160900Z AUTO 32009KT 9SM FEW140 M23/M26 A3016 RMK SLP259

Čas: 02:23 (09:23 UTC)

Předpověď počasí

Zpráva byla vytvořena před 2 hodinami a 45 minutami, v 06:38 UTC
Předpověď platná od 16 v 07 UTC do 16 v 19 UTC
Severoseverozápadní vítr 10 kt
Viditelnost: 10 km
Skoro jasno ve výšce 2000 ft
Polojasno ve výšce 12000 ft
Oblačno až skoro zataženo ve výšce 20000 ft
Dočasný
od 16 v 10 UTC do 16 v 16 UTC
Oblačno až skoro zataženo ve výšce 2000 ft
Zataženo ve výšce 12000 ft

TAF: CYMM 160638Z 1607/1619 34010KT P6SM FEW020 SCT120 BKN200 TEMPO 1610/1616 BKN020 OVC120 RMK FCST BASED ON AUTO OBS. NXT FCST BY 161300Z

Stav a předpovědi počasí z více než 4 000 letišť (zprávy METAR a TAF).

Červené a žluté tečky na mapě představují dostupné meteorologické stanice.

Když kurzor umístíte na tečku, zobrazí se název stanice.

Pak kliknutím zobrazíte stav a předpověď počasí.

Chcete-li změnit mapu, kliknutím na zelené tlačítko se znaménkem +mapu přiblížíte, kliknutím na zelené tlačítko se znaménkem – mapu oddálíte a kliknutím na zelené šipky přejdete na sousední mapy.


METAR-TAF: